sensor_id;sensor_type;location;lat;lon;timestamp;P1;P2;P0
77538;PMS7003;67783;51.656;16.106;2023-03-21T00:01:51;6;5;3
77538;PMS7003;67783;51.656;16.106;2023-03-21T00:04:53;6;5;4
77538;PMS7003;67783;51.656;16.106;2023-03-21T00:07:55;5;5;4
77538;PMS7003;67783;51.656;16.106;2023-03-21T00:11:06;5;5;3
77538;PMS7003;67783;51.656;16.106;2023-03-21T00:14:09;6;4;3
77538;PMS7003;67783;51.656;16.106;2023-03-21T00:17:18;7;5;4
77538;PMS7003;67783;51.656;16.106;2023-03-21T00:20:32;8;6;5
77538;PMS7003;67783;51.656;16.106;2023-03-21T00:23:37;6;6;4
77538;PMS7003;67783;51.656;16.106;2023-03-21T00:26:39;7;4;3
77538;PMS7003;67783;51.656;16.106;2023-03-21T00:29:41;9;5;3
77538;PMS7003;67783;51.656;16.106;2023-03-21T00:32:42;7;7;5
77538;PMS7003;67783;51.656;16.106;2023-03-21T00:35:53;8;6;4
77538;PMS7003;67783;51.656;16.106;2023-03-21T00:38:56;8;7;4
77538;PMS7003;67783;51.656;16.106;2023-03-21T00:41:58;11;7;4
77538;PMS7003;67783;51.656;16.106;2023-03-21T00:44:59;6;6;3
77538;PMS7003;67783;51.656;16.106;2023-03-21T00:48:01;6;6;5
77538;PMS7003;67783;51.656;16.106;2023-03-21T00:51:17;7;7;4
77538;PMS7003;67783;51.656;16.106;2023-03-21T00:54:26;5;5;4
77538;PMS7003;67783;51.656;16.106;2023-03-21T00:57:28;8;6;3
77538;PMS7003;67783;51.656;16.106;2023-03-21T01:00:40;5;5;3
77538;PMS7003;67783;51.656;16.106;2023-03-21T01:03:43;9;7;5
77538;PMS7003;67783;51.656;16.106;2023-03-21T01:06:55;9;5;4
77538;PMS7003;67783;51.656;16.106;2023-03-21T01:10:09;6;5;3
77538;PMS7003;67783;51.656;16.106;2023-03-21T01:13:11;5;5;3
77538;PMS7003;67783;51.656;16.106;2023-03-21T01:16:15;5;5;3
77538;PMS7003;67783;51.656;16.106;2023-03-21T01:19:17;11;7;5
77538;PMS7003;67783;51.656;16.106;2023-03-21T01:22:22;11;7;3
77538;PMS7003;67783;51.656;16.106;2023-03-21T01:25:27;6;6;4
77538;PMS7003;67783;51.656;16.106;2023-03-21T01:28:29;6;4;3
77538;PMS7003;67783;51.656;16.106;2023-03-21T01:31:31;7;7;4
77538;PMS7003;67783;51.656;16.106;2023-03-21T01:34:33;5;5;4
77538;PMS7003;67783;51.656;16.106;2023-03-21T01:37:34;8;6;3
77538;PMS7003;67783;51.656;16.106;2023-03-21T01:40:36;3;3;3
77538;PMS7003;67783;51.656;16.106;2023-03-21T01:43:39;7;6;3
77538;PMS7003;67783;51.656;16.106;2023-03-21T01:46:45;8;4;3
77538;PMS7003;67783;51.656;16.106;2023-03-21T01:49:54;9;6;4
77538;PMS7003;67783;51.656;16.106;2023-03-21T01:53:03;7;3;2
77538;PMS7003;67783;51.656;16.106;2023-03-21T01:56:13;8;8;6
77538;PMS7003;67783;51.656;16.106;2023-03-21T01:59:30;7;5;4
77538;PMS7003;67783;51.656;16.106;2023-03-21T02:02:31;6;5;4
77538;PMS7003;67783;51.656;16.106;2023-03-21T02:05:40;4;4;3
77538;PMS7003;67783;51.656;16.106;2023-03-21T02:08:50;7;5;3
77538;PMS7003;67783;51.656;16.106;2023-03-21T02:11:53;5;4;3
77538;PMS7003;67783;51.656;16.106;2023-03-21T02:15:04;6;4;3
77538;PMS7003;67783;51.656;16.106;2023-03-21T02:50:32;3;3;3
77538;PMS7003;67783;51.656;16.106;2023-03-21T02:53:42;5;4;3
77538;PMS7003;67783;51.656;16.106;2023-03-21T02:56:48;5;3;2
77538;PMS7003;67783;51.656;16.106;2023-03-21T02:59:52;6;6;4
77538;PMS7003;67783;51.656;16.106;2023-03-21T03:02:55;9;4;3
77538;PMS7003;67783;51.656;16.106;2023-03-21T03:05:58;6;3;3
77538;PMS7003;67783;51.656;16.106;2023-03-21T03:15:44;5;5;3
77538;PMS7003;67783;51.656;16.106;2023-03-21T03:18:53;11;6;4
77538;PMS7003;67783;51.656;16.106;2023-03-21T03:25:10;7;5;2
77538;PMS7003;67783;51.656;16.106;2023-03-21T03:28:19;3;3;2
77538;PMS7003;67783;51.656;16.106;2023-03-21T03:31:34;8;7;3
77538;PMS7003;67783;51.656;16.106;2023-03-21T03:34:36;7;7;5
77538;PMS7003;67783;51.656;16.106;2023-03-21T03:37:42;7;5;2
77538;PMS7003;67783;51.656;16.106;2023-03-21T03:40:48;8;6;4
77538;PMS7003;67783;51.656;16.106;2023-03-21T03:44:00;8;5;4
77538;PMS7003;67783;51.656;16.106;2023-03-21T03:53:29;20;19;11
77538;PMS7003;67783;51.656;16.106;2023-03-21T03:56:38;23;17;11
77538;PMS7003;67783;51.656;16.106;2023-03-21T03:59:41;15;14;7
77538;PMS7003;67783;51.656;16.106;2023-03-21T04:02:53;9;9;7
77538;PMS7003;67783;51.656;16.106;2023-03-21T04:05:55;11;9;6
77538;PMS7003;67783;51.656;16.106;2023-03-21T04:08:57;7;7;4
77538;PMS7003;67783;51.656;16.106;2023-03-21T04:11:58;12;7;5
77538;PMS7003;67783;51.656;16.106;2023-03-21T04:15:01;6;5;3
77538;PMS7003;67783;51.656;16.106;2023-03-21T04:18:14;7;6;5
77538;PMS7003;67783;51.656;16.106;2023-03-21T04:21:15;9;7;4
77538;PMS7003;67783;51.656;16.106;2023-03-21T04:24:17;5;5;3
77538;PMS7003;67783;51.656;16.106;2023-03-21T04:27:19;1;0;0
77538;PMS7003;67783;51.656;16.106;2023-03-21T04:30:21;10;5;3
77538;PMS7003;67783;51.656;16.106;2023-03-21T04:33:34;11;6;5
77538;PMS7003;67783;51.656;16.106;2023-03-21T04:36:38;8;4;3
77538;PMS7003;67783;51.656;16.106;2023-03-21T04:39:46;7;7;4
77538;PMS7003;67783;51.656;16.106;2023-03-21T04:42:48;9;6;4
77538;PMS7003;67783;51.656;16.106;2023-03-21T04:45:50;7;6;5
77538;PMS7003;67783;51.656;16.106;2023-03-21T04:48:55;5;5;4
77538;PMS7003;67783;51.656;16.106;2023-03-21T04:51:57;7;5;3
77538;PMS7003;67783;51.656;16.106;2023-03-21T04:54:59;13;9;6
77538;PMS7003;67783;51.656;16.106;2023-03-21T04:58:02;9;7;5
77538;PMS7003;67783;51.656;16.106;2023-03-21T05:01:06;8;7;4
77538;PMS7003;67783;51.656;16.106;2023-03-21T05:04:16;6;6;4
77538;PMS7003;67783;51.656;16.106;2023-03-21T05:07:19;15;7;5
77538;PMS7003;67783;51.656;16.106;2023-03-21T05:10:26;10;7;4
77538;PMS7003;67783;51.656;16.106;2023-03-21T05:13:27;9;6;4
77538;PMS7003;67783;51.656;16.106;2023-03-21T05:16:29;15;8;4
77538;PMS7003;67783;51.656;16.106;2023-03-21T05:19:36;10;8;5
77538;PMS7003;67783;51.656;16.106;2023-03-21T05:22:40;7;5;4
77538;PMS7003;67783;51.656;16.106;2023-03-21T05:25:45;6;6;3
77538;PMS7003;67783;51.656;16.106;2023-03-21T05:28:47;7;7;5
77538;PMS7003;67783;51.656;16.106;2023-03-21T05:31:50;8;5;4
77538;PMS7003;67783;51.656;16.106;2023-03-21T05:34:57;6;6;4
77538;PMS7003;67783;51.656;16.106;2023-03-21T05:37:59;8;6;3
77538;PMS7003;67783;51.656;16.106;2023-03-21T05:41:01;6;5;3
77538;PMS7003;67783;51.656;16.106;2023-03-21T05:44:03;8;7;4
77538;PMS7003;67783;51.656;16.106;2023-03-21T05:47:05;4;4;3
77538;PMS7003;67783;51.656;16.106;2023-03-21T05:50:18;8;8;5
77538;PMS7003;67783;51.656;16.106;2023-03-21T05:53:20;12;11;7
77538;PMS7003;67783;51.656;16.106;2023-03-21T05:56:22;7;6;4
77538;PMS7003;67783;51.656;16.106;2023-03-21T05:59:23;5;4;3
77538;PMS7003;67783;51.656;16.106;2023-03-21T06:02:25;6;6;5
77538;PMS7003;67783;51.656;16.106;2023-03-21T06:05:27;7;4;3
77538;PMS7003;67783;51.656;16.106;2023-03-21T06:08:29;8;6;2
77538;PMS7003;67783;51.656;16.106;2023-03-21T06:11:34;5;4;3
77538;PMS7003;67783;51.656;16.106;2023-03-21T06:14:37;5;4;2
77538;PMS7003;67783;51.656;16.106;2023-03-21T06:17:39;4;3;1
77538;PMS7003;67783;51.656;16.106;2023-03-21T06:20:41;10;10;5
77538;PMS7003;67783;51.656;16.106;2023-03-21T06:23:43;6;6;4
77538;PMS7003;67783;51.656;16.106;2023-03-21T06:26:54;8;5;4
77538;PMS7003;67783;51.656;16.106;2023-03-21T06:29:56;5;1;1
77538;PMS7003;67783;51.656;16.106;2023-03-21T06:32:58;7;6;3
77538;PMS7003;67783;51.656;16.106;2023-03-21T06:36:00;5;4;4
77538;PMS7003;67783;51.656;16.106;2023-03-21T06:39:02;7;6;5
77538;PMS7003;67783;51.656;16.106;2023-03-21T06:42:15;7;5;4
77538;PMS7003;67783;51.656;16.106;2023-03-21T06:45:17;8;7;3
77538;PMS7003;67783;51.656;16.106;2023-03-21T06:48:19;8;6;4
77538;PMS7003;67783;51.656;16.106;2023-03-21T06:51:21;7;5;3
77538;PMS7003;67783;51.656;16.106;2023-03-21T06:54:22;11;9;6
77538;PMS7003;67783;51.656;16.106;2023-03-21T06:57:24;6;5;3
77538;PMS7003;67783;51.656;16.106;2023-03-21T07:00:26;10;7;5
77538;PMS7003;67783;51.656;16.106;2023-03-21T07:03:31;7;7;4
77538;PMS7003;67783;51.656;16.106;2023-03-21T07:06:33;9;7;6
77538;PMS7003;67783;51.656;16.106;2023-03-21T07:09:36;11;7;4
77538;PMS7003;67783;51.656;16.106;2023-03-21T07:12:38;7;6;4
77538;PMS7003;67783;51.656;16.106;2023-03-21T07:15:40;5;5;3
77538;PMS7003;67783;51.656;16.106;2023-03-21T07:18:52;7;7;4
77538;PMS7003;67783;51.656;16.106;2023-03-21T07:21:53;6;6;5
77538;PMS7003;67783;51.656;16.106;2023-03-21T07:24:55;11;6;5
77538;PMS7003;67783;51.656;16.106;2023-03-21T07:27:57;10;9;4
77538;PMS7003;67783;51.656;16.106;2023-03-21T07:31:00;8;5;3
77538;PMS7003;67783;51.656;16.106;2023-03-21T07:34:12;7;7;5
77538;PMS7003;67783;51.656;16.106;2023-03-21T07:37:16;7;7;5
77538;PMS7003;67783;51.656;16.106;2023-03-21T07:40:18;12;7;4
77538;PMS7003;67783;51.656;16.106;2023-03-21T07:43:20;6;5;4
77538;PMS7003;67783;51.656;16.106;2023-03-21T07:46:21;6;6;4
77538;PMS7003;67783;51.656;16.106;2023-03-21T07:49:32;9;8;4
77538;PMS7003;67783;51.656;16.106;2023-03-21T07:52:35;7;5;4
77538;PMS7003;67783;51.656;16.106;2023-03-21T07:55:37;9;6;5
77538;PMS7003;67783;51.656;16.106;2023-03-21T07:58:39;7;7;5
77538;PMS7003;67783;51.656;16.106;2023-03-21T08:01:41;10;8;5
77538;PMS7003;67783;51.656;16.106;2023-03-21T08:04:53;9;7;5
77538;PMS7003;67783;51.656;16.106;2023-03-21T08:07:56;10;8;4
77538;PMS7003;67783;51.656;16.106;2023-03-21T08:10:57;11;8;5
77538;PMS7003;67783;51.656;16.106;2023-03-21T08:14:00;5;5;3
77538;PMS7003;67783;51.656;16.106;2023-03-21T08:17:05;7;6;4
77538;PMS7003;67783;51.656;16.106;2023-03-21T08:20:15;5;5;4
77538;PMS7003;67783;51.656;16.106;2023-03-21T08:23:21;9;6;5
77538;PMS7003;67783;51.656;16.106;2023-03-21T08:26:24;6;6;3
77538;PMS7003;67783;51.656;16.106;2023-03-21T08:29:26;11;8;4
77538;PMS7003;67783;51.656;16.106;2023-03-21T08:32:28;6;5;4
77538;PMS7003;67783;51.656;16.106;2023-03-21T08:35:34;4;3;3
77538;PMS7003;67783;51.656;16.106;2023-03-21T08:38:36;3;3;2
77538;PMS7003;67783;51.656;16.106;2023-03-21T08:41:39;7;6;4
77538;PMS7003;67783;51.656;16.106;2023-03-21T08:44:40;6;4;3
77538;PMS7003;67783;51.656;16.106;2023-03-21T08:47:42;5;5;4
77538;PMS7003;67783;51.656;16.106;2023-03-21T08:50:44;4;4;4
77538;PMS7003;67783;51.656;16.106;2023-03-21T08:53:46;7;6;4
77538;PMS7003;67783;51.656;16.106;2023-03-21T08:56:51;5;4;2
77538;PMS7003;67783;51.656;16.106;2023-03-21T08:59:52;2;1;0
77538;PMS7003;67783;51.656;16.106;2023-03-21T09:02:54;6;6;4
77538;PMS7003;67783;51.656;16.106;2023-03-21T09:05:58;5;4;3
77538;PMS7003;67783;51.656;16.106;2023-03-21T09:09:02;8;6;4
77538;PMS7003;67783;51.656;16.106;2023-03-21T09:12:11;7;6;4
77538;PMS7003;67783;51.656;16.106;2023-03-21T09:15:13;4;4;3
77538;PMS7003;67783;51.656;16.106;2023-03-21T09:18:15;5;3;2
77538;PMS7003;67783;51.656;16.106;2023-03-21T09:21:22;7;3;2
77538;PMS7003;67783;51.656;16.106;2023-03-21T09:24:25;6;3;2
77538;PMS7003;67783;51.656;16.106;2023-03-21T09:27:32;4;4;2
77538;PMS7003;67783;51.656;16.106;2023-03-21T09:30:35;8;6;4
77538;PMS7003;67783;51.656;16.106;2023-03-21T09:33:38;11;9;4
77538;PMS7003;67783;51.656;16.106;2023-03-21T09:36:44;5;5;4
77538;PMS7003;67783;51.656;16.106;2023-03-21T09:39:48;4;4;3
77538;PMS7003;67783;51.656;16.106;2023-03-21T09:43:02;8;7;4
77538;PMS7003;67783;51.656;16.106;2023-03-21T09:49:27;10;9;6
77538;PMS7003;67783;51.656;16.106;2023-03-21T09:55:48;5;5;3
77538;PMS7003;67783;51.656;16.106;2023-03-21T09:58:54;7;6;4
77538;PMS7003;67783;51.656;16.106;2023-03-21T10:01:59;8;6;5
77538;PMS7003;67783;51.656;16.106;2023-03-21T10:08:18;7;6;4
77538;PMS7003;67783;51.656;16.106;2023-03-21T10:11:26;7;7;4
77538;PMS7003;67783;51.656;16.106;2023-03-21T10:14:34;9;9;6
77538;PMS7003;67783;51.656;16.106;2023-03-21T10:17:43;10;8;4
77538;PMS7003;67783;51.656;16.106;2023-03-21T10:20:53;7;7;4
77538;PMS7003;67783;51.656;16.106;2023-03-21T10:23:55;8;5;4
77538;PMS7003;67783;51.656;16.106;2023-03-21T10:26:59;8;8;4
77538;PMS7003;67783;51.656;16.106;2023-03-21T10:30:04;9;8;5
77538;PMS7003;67783;51.656;16.106;2023-03-21T10:33:15;10;8;5
77538;PMS7003;67783;51.656;16.106;2023-03-21T10:36:24;6;6;4
77538;PMS7003;67783;51.656;16.106;2023-03-21T10:39:33;6;4;2
77538;PMS7003;67783;51.656;16.106;2023-03-21T10:42:38;11;5;3
77538;PMS7003;67783;51.656;16.106;2023-03-21T10:45:47;9;7;4
77538;PMS7003;67783;51.656;16.106;2023-03-21T10:48:52;5;4;3
77538;PMS7003;67783;51.656;16.106;2023-03-21T10:51:55;6;6;4
77538;PMS7003;67783;51.656;16.106;2023-03-21T10:55:06;9;7;5
77538;PMS7003;67783;51.656;16.106;2023-03-21T10:58:15;7;6;4
77538;PMS7003;67783;51.656;16.106;2023-03-21T11:04:39;8;7;5
77538;PMS7003;67783;51.656;16.106;2023-03-21T11:07:43;9;9;5
77538;PMS7003;67783;51.656;16.106;2023-03-21T11:14:02;6;6;5
77538;PMS7003;67783;51.656;16.106;2023-03-21T11:20:22;9;5;3
77538;PMS7003;67783;51.656;16.106;2023-03-21T11:23:25;5;5;3
77538;PMS7003;67783;51.656;16.106;2023-03-21T11:26:31;5;4;3
77538;PMS7003;67783;51.656;16.106;2023-03-21T11:29:46;11;8;6
77538;PMS7003;67783;51.656;16.106;2023-03-21T11:32:56;7;4;3
77538;PMS7003;67783;51.656;16.106;2023-03-21T11:35:59;10;6;5
77538;PMS7003;67783;51.656;16.106;2023-03-21T11:39:12;8;7;5
77538;PMS7003;67783;51.656;16.106;2023-03-21T11:45:30;6;5;5
77538;PMS7003;67783;51.656;16.106;2023-03-21T11:55:07;5;5;4
77538;PMS7003;67783;51.656;16.106;2023-03-21T12:04:58;10;8;6
77538;PMS7003;67783;51.656;16.106;2023-03-21T12:24:17;7;5;4
77538;PMS7003;67783;51.656;16.106;2023-03-21T12:27:34;11;5;3
77538;PMS7003;67783;51.656;16.106;2023-03-21T12:34:08;7;7;5
77538;PMS7003;67783;51.656;16.106;2023-03-21T12:40:43;7;5;4
77538;PMS7003;67783;51.656;16.106;2023-03-21T12:43:47;5;5;2
77538;PMS7003;67783;51.656;16.106;2023-03-21T12:46:59;7;6;3
77538;PMS7003;67783;51.656;16.106;2023-03-21T12:50:17;13;7;5
77538;PMS7003;67783;51.656;16.106;2023-03-21T12:59:59;6;4;3
77538;PMS7003;67783;51.656;16.106;2023-03-21T13:03:17;7;4;3
77538;PMS7003;67783;51.656;16.106;2023-03-21T13:06:24;6;5;2
77538;PMS7003;67783;51.656;16.106;2023-03-21T13:09:32;10;4;3
77538;PMS7003;67783;51.656;16.106;2023-03-21T13:22:20;13;8;5
77538;PMS7003;67783;51.656;16.106;2023-03-21T13:25:27;7;7;5
77538;PMS7003;67783;51.656;16.106;2023-03-21T13:28:33;9;7;5
77538;PMS7003;67783;51.656;16.106;2023-03-21T13:31:36;5;4;3
77538;PMS7003;67783;51.656;16.106;2023-03-21T13:41:25;5;3;2
77538;PMS7003;67783;51.656;16.106;2023-03-21T13:44:40;6;6;5
77538;PMS7003;67783;51.656;16.106;2023-03-21T13:57:40;13;5;4
77538;PMS7003;67783;51.656;16.106;2023-03-21T14:00:36;7;7;5
77538;PMS7003;67783;51.656;16.106;2023-03-21T14:03:39;8;8;5
77538;PMS7003;67783;51.656;16.106;2023-03-21T14:13:15;9;7;4
77538;PMS7003;67783;51.656;16.106;2023-03-21T14:16:20;6;5;4
77538;PMS7003;67783;51.656;16.106;2023-03-21T14:19:29;9;6;4
77538;PMS7003;67783;51.656;16.106;2023-03-21T14:22:33;5;4;3
77538;PMS7003;67783;51.656;16.106;2023-03-21T14:25:37;5;5;3
77538;PMS7003;67783;51.656;16.106;2023-03-21T14:28:45;6;6;5
77538;PMS7003;67783;51.656;16.106;2023-03-21T14:32:00;5;5;2
77538;PMS7003;67783;51.656;16.106;2023-03-21T14:35:02;9;4;3
77538;PMS7003;67783;51.656;16.106;2023-03-21T14:38:18;7;5;3
77538;PMS7003;67783;51.656;16.106;2023-03-21T14:41:27;6;6;5
77538;PMS7003;67783;51.656;16.106;2023-03-21T14:44:36;8;5;3
77538;PMS7003;67783;51.656;16.106;2023-03-21T14:47:52;8;6;5
77538;PMS7003;67783;51.656;16.106;2023-03-21T14:50:56;5;4;3
77538;PMS7003;67783;51.656;16.106;2023-03-21T14:54:02;7;7;5
77538;PMS7003;67783;51.656;16.106;2023-03-21T14:57:06;7;7;5
77538;PMS7003;67783;51.656;16.106;2023-03-21T15:00:23;8;4;3
77538;PMS7003;67783;51.656;16.106;2023-03-21T15:03:30;5;5;3
77538;PMS7003;67783;51.656;16.106;2023-03-21T15:06:46;8;5;3
77538;PMS7003;67783;51.656;16.106;2023-03-21T15:09:46;6;6;4
77538;PMS7003;67783;51.656;16.106;2023-03-21T15:12:56;8;4;4
77538;PMS7003;67783;51.656;16.106;2023-03-21T15:16:00;7;5;3
77538;PMS7003;67783;51.656;16.106;2023-03-21T15:19:16;7;7;5
77538;PMS7003;67783;51.656;16.106;2023-03-21T15:25:39;9;5;4
77538;PMS7003;67783;51.656;16.106;2023-03-21T15:28:44;6;6;4
77538;PMS7003;67783;51.656;16.106;2023-03-21T15:31:48;6;6;4
77538;PMS7003;67783;51.656;16.106;2023-03-21T15:34:52;6;6;4
77538;PMS7003;67783;51.656;16.106;2023-03-21T15:37:57;8;7;5
77538;PMS7003;67783;51.656;16.106;2023-03-21T15:44:15;7;5;3
77538;PMS7003;67783;51.656;16.106;2023-03-21T15:50:33;6;6;3
77538;PMS7003;67783;51.656;16.106;2023-03-21T15:53:38;12;8;6
77538;PMS7003;67783;51.656;16.106;2023-03-21T15:56:43;6;6;3
77538;PMS7003;67783;51.656;16.106;2023-03-21T15:59:55;4;4;3
77538;PMS7003;67783;51.656;16.106;2023-03-21T16:03:12;7;6;4
77538;PMS7003;67783;51.656;16.106;2023-03-21T16:06:20;8;5;3
77538;PMS7003;67783;51.656;16.106;2023-03-21T16:09:37;8;6;4
77538;PMS7003;67783;51.656;16.106;2023-03-21T16:12:42;10;7;6
77538;PMS7003;67783;51.656;16.106;2023-03-21T16:15:44;7;6;4
77538;PMS7003;67783;51.656;16.106;2023-03-21T16:18:47;7;7;6
77538;PMS7003;67783;51.656;16.106;2023-03-21T16:21:59;6;6;4
77538;PMS7003;67783;51.656;16.106;2023-03-21T16:25:01;6;5;3
77538;PMS7003;67783;51.656;16.106;2023-03-21T16:28:03;9;4;3
77538;PMS7003;67783;51.656;16.106;2023-03-21T16:34:24;5;3;3
77538;PMS7003;67783;51.656;16.106;2023-03-21T16:37:28;8;6;4
77538;PMS7003;67783;51.656;16.106;2023-03-21T16:40:31;8;8;5
77538;PMS7003;67783;51.656;16.106;2023-03-21T16:43:35;7;5;2
77538;PMS7003;67783;51.656;16.106;2023-03-21T16:46:55;7;3;3
77538;PMS7003;67783;51.656;16.106;2023-03-21T16:49:57;6;6;4
77538;PMS7003;67783;51.656;16.106;2023-03-21T16:52:58;4;3;2
77538;PMS7003;67783;51.656;16.106;2023-03-21T17:00:29;9;9;6
77538;PMS7003;67783;51.656;16.106;2023-03-21T17:03:31;10;8;6
77538;PMS7003;67783;51.656;16.106;2023-03-21T17:06:36;8;8;5
77538;PMS7003;67783;51.656;16.106;2023-03-21T17:09:44;12;10;7
77538;PMS7003;67783;51.656;16.106;2023-03-21T17:12:48;9;9;6
77538;PMS7003;67783;51.656;16.106;2023-03-21T17:15:49;10;8;4
77538;PMS7003;67783;51.656;16.106;2023-03-21T17:18:51;11;9;7
77538;PMS7003;67783;51.656;16.106;2023-03-21T17:21:53;11;9;6
77538;PMS7003;67783;51.656;16.106;2023-03-21T17:25:01;12;11;6
77538;PMS7003;67783;51.656;16.106;2023-03-21T17:28:04;9;7;5
77538;PMS7003;67783;51.656;16.106;2023-03-21T17:31:11;11;10;7
77538;PMS7003;67783;51.656;16.106;2023-03-21T17:34:27;10;6;6
77538;PMS7003;67783;51.656;16.106;2023-03-21T17:37:30;10;9;6
77538;PMS7003;67783;51.656;16.106;2023-03-21T17:40:33;10;6;4
77538;PMS7003;67783;51.656;16.106;2023-03-21T17:43:36;8;7;3
77538;PMS7003;67783;51.656;16.106;2023-03-21T17:46:38;10;8;4
77538;PMS7003;67783;51.656;16.106;2023-03-21T17:49:48;10;10;5
77538;PMS7003;67783;51.656;16.106;2023-03-21T17:52:50;9;7;3
77538;PMS7003;67783;51.656;16.106;2023-03-21T17:55:56;10;5;4
77538;PMS7003;67783;51.656;16.106;2023-03-21T17:58:59;12;8;6
77538;PMS7003;67783;51.656;16.106;2023-03-21T18:02:03;11;9;6
77538;PMS7003;67783;51.656;16.106;2023-03-21T18:05:09;15;12;7
77538;PMS7003;67783;51.656;16.106;2023-03-21T18:08:11;9;9;6
77538;PMS7003;67783;51.656;16.106;2023-03-21T18:11:14;9;9;5
77538;PMS7003;67783;51.656;16.106;2023-03-21T18:14:17;10;7;6
77538;PMS7003;67783;51.656;16.106;2023-03-21T18:17:21;8;8;5
77538;PMS7003;67783;51.656;16.106;2023-03-21T18:20:29;5;5;4
77538;PMS7003;67783;51.656;16.106;2023-03-21T18:23:32;11;8;5
77538;PMS7003;67783;51.656;16.106;2023-03-21T18:26:34;11;11;5
77538;PMS7003;67783;51.656;16.106;2023-03-21T18:29:36;14;11;7
77538;PMS7003;67783;51.656;16.106;2023-03-21T18:32:38;19;12;8
77538;PMS7003;67783;51.656;16.106;2023-03-21T18:35:50;12;12;7
77538;PMS7003;67783;51.656;16.106;2023-03-21T18:38:52;9;9;6
77538;PMS7003;67783;51.656;16.106;2023-03-21T18:41:56;8;7;5
77538;PMS7003;67783;51.656;16.106;2023-03-21T18:45:01;12;11;6
77538;PMS7003;67783;51.656;16.106;2023-03-21T18:48:04;9;8;5
77538;PMS7003;67783;51.656;16.106;2023-03-21T18:51:11;16;11;7
77538;PMS7003;67783;51.656;16.106;2023-03-21T18:54:13;10;7;4
77538;PMS7003;67783;51.656;16.106;2023-03-21T18:57:15;11;11;7
77538;PMS7003;67783;51.656;16.106;2023-03-21T19:00:17;11;9;7
77538;PMS7003;67783;51.656;16.106;2023-03-21T19:03:22;14;10;6
77538;PMS7003;67783;51.656;16.106;2023-03-21T19:06:31;12;9;7
77538;PMS7003;67783;51.656;16.106;2023-03-21T19:09:33;9;9;6
77538;PMS7003;67783;51.656;16.106;2023-03-21T19:12:37;12;12;5
77538;PMS7003;67783;51.656;16.106;2023-03-21T19:15:39;14;11;7
77538;PMS7003;67783;51.656;16.106;2023-03-21T19:18:41;14;10;8
77538;PMS7003;67783;51.656;16.106;2023-03-21T19:21:52;13;10;7
77538;PMS7003;67783;51.656;16.106;2023-03-21T19:24:54;11;10;6
77538;PMS7003;67783;51.656;16.106;2023-03-21T19:27:56;10;9;4
77538;PMS7003;67783;51.656;16.106;2023-03-21T19:34:06;9;9;5
77538;PMS7003;67783;51.656;16.106;2023-03-21T19:37:13;13;9;7
77538;PMS7003;67783;51.656;16.106;2023-03-21T19:40:14;11;11;7
77538;PMS7003;67783;51.656;16.106;2023-03-21T19:43:19;14;13;7
77538;PMS7003;67783;51.656;16.106;2023-03-21T19:46:21;10;8;5
77538;PMS7003;67783;51.656;16.106;2023-03-21T19:49:25;14;9;6
77538;PMS7003;67783;51.656;16.106;2023-03-21T19:52:33;18;12;7
77538;PMS7003;67783;51.656;16.106;2023-03-21T19:55:37;14;9;6
77538;PMS7003;67783;51.656;16.106;2023-03-21T19:58:42;12;12;8
77538;PMS7003;67783;51.656;16.106;2023-03-21T20:01:45;16;10;7
77538;PMS7003;67783;51.656;16.106;2023-03-21T20:04:47;14;12;7
77538;PMS7003;67783;51.656;16.106;2023-03-21T20:07:54;15;13;7
77538;PMS7003;67783;51.656;16.106;2023-03-21T20:10:59;18;15;8
77538;PMS7003;67783;51.656;16.106;2023-03-21T20:14:01;13;11;6
77538;PMS7003;67783;51.656;16.106;2023-03-21T20:17:03;10;10;7
77538;PMS7003;67783;51.656;16.106;2023-03-21T20:20:06;13;8;5
77538;PMS7003;67783;51.656;16.106;2023-03-21T20:23:16;13;10;6
77538;PMS7003;67783;51.656;16.106;2023-03-21T20:26:19;12;8;4
77538;PMS7003;67783;51.656;16.106;2023-03-21T20:29:21;10;10;7
77538;PMS7003;67783;51.656;16.106;2023-03-21T20:32:24;10;9;7
77538;PMS7003;67783;51.656;16.106;2023-03-21T20:35:25;14;11;7
77538;PMS7003;67783;51.656;16.106;2023-03-21T20:38:35;16;14;9
77538;PMS7003;67783;51.656;16.106;2023-03-21T20:41:41;13;12;7
77538;PMS7003;67783;51.656;16.106;2023-03-21T20:44:43;15;12;9
77538;PMS7003;67783;51.656;16.106;2023-03-21T20:47:45;14;11;6
77538;PMS7003;67783;51.656;16.106;2023-03-21T20:50:48;13;11;8
77538;PMS7003;67783;51.656;16.106;2023-03-21T20:53:56;26;19;12
77538;PMS7003;67783;51.656;16.106;2023-03-21T20:56:58;18;17;11
77538;PMS7003;67783;51.656;16.106;2023-03-21T20:59:59;23;13;7
77538;PMS7003;67783;51.656;16.106;2023-03-21T21:03:07;16;10;7
77538;PMS7003;67783;51.656;16.106;2023-03-21T21:06:13;13;10;6
77538;PMS7003;67783;51.656;16.106;2023-03-21T21:09:17;11;10;6
77538;PMS7003;67783;51.656;16.106;2023-03-21T21:12:19;11;10;7
77538;PMS7003;67783;51.656;16.106;2023-03-21T21:15:27;12;9;5
77538;PMS7003;67783;51.656;16.106;2023-03-21T21:18:28;11;9;6
77538;PMS7003;67783;51.656;16.106;2023-03-21T21:21:31;9;8;6
77538;PMS7003;67783;51.656;16.106;2023-03-21T21:24:37;13;12;6
77538;PMS7003;67783;51.656;16.106;2023-03-21T21:27:40;16;11;5
77538;PMS7003;67783;51.656;16.106;2023-03-21T21:30:42;13;11;7
77538;PMS7003;67783;51.656;16.106;2023-03-21T21:33:44;12;12;5
77538;PMS7003;67783;51.656;16.106;2023-03-21T21:36:49;13;11;6
77538;PMS7003;67783;51.656;16.106;2023-03-21T21:40:01;13;11;7
77538;PMS7003;67783;51.656;16.106;2023-03-21T21:43:14;9;8;6
77538;PMS7003;67783;51.656;16.106;2023-03-21T21:46:19;13;11;8
77538;PMS7003;67783;51.656;16.106;2023-03-21T21:49:25;12;10;5
77538;PMS7003;67783;51.656;16.106;2023-03-21T21:52:27;14;12;7
77538;PMS7003;67783;51.656;16.106;2023-03-21T21:55:29;14;11;7
77538;PMS7003;67783;51.656;16.106;2023-03-21T21:58:32;11;10;6
77538;PMS7003;67783;51.656;16.106;2023-03-21T22:01:43;9;9;6
77538;PMS7003;67783;51.656;16.106;2023-03-21T22:04:49;11;9;6
77538;PMS7003;67783;51.656;16.106;2023-03-21T22:07:54;15;12;7
77538;PMS7003;67783;51.656;16.106;2023-03-21T22:10:58;11;10;6
77538;PMS7003;67783;51.656;16.106;2023-03-21T22:14:00;14;10;7
77538;PMS7003;67783;51.656;16.106;2023-03-21T22:17:02;13;11;6
77538;PMS7003;67783;51.656;16.106;2023-03-21T22:20:10;13;10;6
77538;PMS7003;67783;51.656;16.106;2023-03-21T22:23:15;13;10;5
77538;PMS7003;67783;51.656;16.106;2023-03-21T22:26:19;11;10;6
77538;PMS7003;67783;51.656;16.106;2023-03-21T22:29:21;12;10;6
77538;PMS7003;67783;51.656;16.106;2023-03-21T22:32:22;15;11;7
77538;PMS7003;67783;51.656;16.106;2023-03-21T22:35:29;12;11;6
77538;PMS7003;67783;51.656;16.106;2023-03-21T22:38:31;15;12;6
77538;PMS7003;67783;51.656;16.106;2023-03-21T22:41:34;11;8;6
77538;PMS7003;67783;51.656;16.106;2023-03-21T22:44:36;13;8;5
77538;PMS7003;67783;51.656;16.106;2023-03-21T22:47:38;11;9;6
77538;PMS7003;67783;51.656;16.106;2023-03-21T22:50:50;8;6;5
77538;PMS7003;67783;51.656;16.106;2023-03-21T22:53:52;12;10;5
77538;PMS7003;67783;51.656;16.106;2023-03-21T22:56:54;15;10;7
77538;PMS7003;67783;51.656;16.106;2023-03-21T22:59:56;10;10;7
77538;PMS7003;67783;51.656;16.106;2023-03-21T23:02:59;10;10;6
77538;PMS7003;67783;51.656;16.106;2023-03-21T23:06:11;13;9;6